createdAt,value
2023-06-09T00:01:23.824Z,4.95
2023-06-09T00:04:10.984Z,4.65
2023-06-09T00:06:58.277Z,4.72
2023-06-09T00:09:44.813Z,5.57
2023-06-09T00:12:32.688Z,5.43
2023-06-09T00:15:19.567Z,5.28
2023-06-09T00:18:06.597Z,4.97
2023-06-09T00:20:53.339Z,5.47
2023-06-09T00:23:39.687Z,4.82
2023-06-09T00:26:26.514Z,5.10
2023-06-09T00:29:14.831Z,4.82
2023-06-09T00:32:01.474Z,5.40
2023-06-09T00:34:48.150Z,5.45
2023-06-09T00:37:34.930Z,4.82
2023-06-09T00:40:23.077Z,5.38
2023-06-09T00:43:09.918Z,4.60
2023-06-09T00:45:58.151Z,5.20
2023-06-09T00:48:44.768Z,5.65
2023-06-09T00:51:35.035Z,5.57
2023-06-09T00:54:22.802Z,5.28
2023-06-09T00:57:09.700Z,5.65
2023-06-09T00:59:56.691Z,5.10
2023-06-09T01:02:45.909Z,5.50
2023-06-09T01:05:34.904Z,5.82
2023-06-09T01:08:29.558Z,6.15
2023-06-09T01:11:26.158Z,5.97
2023-06-09T01:14:22.724Z,5.72
2023-06-09T01:17:13.194Z,5.30
2023-06-09T01:20:06.381Z,5.10
2023-06-09T01:23:07.808Z,5.70
2023-06-09T01:25:56.627Z,5.93
2023-06-09T01:28:44.746Z,6.10
2023-06-09T01:31:31.876Z,5.75
2023-06-09T01:34:19.121Z,6.10
2023-06-09T01:37:06.506Z,5.97
2023-06-09T01:39:53.241Z,6.55
2023-06-09T01:42:41.317Z,6.25
2023-06-09T01:45:28.011Z,6.18
2023-06-09T01:48:24.115Z,6.22
2023-06-09T01:51:16.118Z,6.35
2023-06-09T01:54:09.138Z,6.32
2023-06-09T01:57:00.463Z,6.10
2023-06-09T01:59:56.391Z,5.97
2023-06-09T02:02:47.632Z,6.45
2023-06-09T02:05:36.874Z,5.68
2023-06-09T02:08:23.939Z,6.20
2023-06-09T02:11:12.802Z,5.90
2023-06-09T02:13:59.635Z,5.85
2023-06-09T02:16:48.159Z,6.05
2023-06-09T02:19:38.886Z,6.22
2023-06-09T02:22:25.837Z,6.45
2023-06-09T02:25:12.708Z,6.43
2023-06-09T02:27:59.808Z,5.93
2023-06-09T02:30:47.000Z,6.07
2023-06-09T02:33:35.568Z,6.13
2023-06-09T02:36:22.501Z,6.32
2023-06-09T02:39:09.017Z,6.47
2023-06-09T02:41:56.156Z,5.85
2023-06-09T02:44:42.941Z,6.03
2023-06-09T02:47:29.620Z,6.22
2023-06-09T02:50:18.108Z,6.25
2023-06-09T02:53:06.046Z,6.22
2023-06-09T02:55:53.672Z,6.63
2023-06-09T02:58:46.533Z,6.43
2023-06-09T03:01:36.127Z,6.07
2023-06-09T03:04:24.738Z,7.05
2023-06-09T03:07:14.674Z,5.82
2023-06-09T03:10:02.495Z,6.13
2023-06-09T03:12:51.907Z,6.55
2023-06-09T03:15:41.734Z,6.88
2023-06-09T03:18:30.370Z,6.60
2023-06-09T03:21:17.030Z,6.15
2023-06-09T03:24:08.477Z,6.00
2023-06-09T03:26:57.762Z,6.45
2023-06-09T03:29:45.650Z,6.97
2023-06-09T03:32:32.567Z,6.65
2023-06-09T03:35:19.085Z,6.60
2023-06-09T03:38:07.107Z,6.28
2023-06-09T03:40:55.387Z,6.95
2023-06-09T03:43:42.888Z,6.80
2023-06-09T03:46:29.631Z,6.15
2023-06-09T03:49:16.330Z,7.00
2023-06-09T03:52:03.711Z,6.55
2023-06-09T03:54:50.407Z,6.70
2023-06-09T03:57:38.847Z,6.75
2023-06-09T04:00:27.482Z,6.47
2023-06-09T04:03:19.256Z,6.95
2023-06-09T04:06:06.652Z,7.18
2023-06-09T04:08:54.563Z,6.30
2023-06-09T04:11:41.347Z,6.32
2023-06-09T04:14:29.330Z,6.63
2023-06-09T04:17:16.581Z,6.53
2023-06-09T04:20:06.038Z,6.80
2023-06-09T04:22:54.254Z,6.13
2023-06-09T04:25:48.083Z,6.10
2023-06-09T04:28:37.477Z,6.28
2023-06-09T04:31:25.775Z,6.10
2023-06-09T04:34:13.866Z,6.22
2023-06-09T04:37:05.700Z,6.63
2023-06-09T04:39:52.239Z,6.22
2023-06-09T04:42:42.491Z,6.50
2023-06-09T04:45:29.805Z,6.38
2023-06-09T04:48:23.719Z,6.75
2023-06-09T04:51:11.417Z,6.10
2023-06-09T04:54:03.911Z,5.95
2023-06-09T04:56:53.709Z,6.53
2023-06-09T04:59:42.943Z,6.03
2023-06-09T05:02:32.842Z,5.85
2023-06-09T05:05:22.157Z,6.70
2023-06-09T05:08:09.466Z,6.00
2023-06-09T05:10:56.751Z,6.15
2023-06-09T05:13:44.537Z,6.28
2023-06-09T05:16:31.295Z,6.57
2023-06-09T05:19:18.156Z,6.30
2023-06-09T05:22:06.254Z,6.00
2023-06-09T05:24:53.671Z,6.30
2023-06-09T05:27:40.358Z,6.57
2023-06-09T05:30:28.652Z,6.43
2023-06-09T05:33:15.360Z,5.53
2023-06-09T05:36:02.945Z,6.22
2023-06-09T05:38:50.650Z,6.28
2023-06-09T05:41:37.797Z,5.80
2023-06-09T05:44:24.278Z,6.18
2023-06-09T05:47:13.175Z,6.05
2023-06-09T05:50:00.106Z,6.68
2023-06-09T05:52:46.659Z,6.20
2023-06-09T05:55:34.826Z,6.07
2023-06-09T05:58:21.501Z,5.63
2023-06-09T06:01:08.441Z,6.07
2023-06-09T06:03:55.776Z,5.65
2023-06-09T06:06:42.151Z,6.45
2023-06-09T06:09:28.795Z,5.68
2023-06-09T06:12:16.965Z,6.05
2023-06-09T06:15:04.424Z,6.75
2023-06-09T06:17:51.080Z,5.75
2023-06-09T06:20:37.640Z,6.43
2023-06-09T06:23:24.498Z,5.68
2023-06-09T06:26:11.129Z,5.95
2023-06-09T06:28:59.012Z,5.93
2023-06-09T06:31:45.677Z,5.90
2023-06-09T06:34:32.066Z,6.28
2023-06-09T06:37:19.240Z,5.78
2023-06-09T06:40:07.402Z,6.32
2023-06-09T06:42:54.709Z,6.00
2023-06-09T06:45:51.152Z,5.95
2023-06-09T06:48:39.814Z,6.22
2023-06-09T06:51:26.457Z,5.85
2023-06-09T06:54:12.761Z,6.45
2023-06-09T06:57:02.013Z,5.78
2023-06-09T06:59:48.620Z,5.93
2023-06-09T07:02:36.721Z,6.13
2023-06-09T07:05:23.492Z,6.03
2023-06-09T07:08:10.158Z,6.00
2023-06-09T07:10:56.796Z,5.75
2023-06-09T07:13:43.192Z,6.18
2023-06-09T07:16:29.962Z,5.88
2023-06-09T07:19:17.769Z,5.20
2023-06-09T07:22:04.931Z,5.82
2023-06-09T07:24:51.326Z,5.85
2023-06-09T07:27:37.883Z,5.38
2023-06-09T07:30:24.552Z,5.35
2023-06-09T07:33:11.532Z,5.57
2023-06-09T07:35:59.734Z,5.68
2023-06-09T07:38:47.546Z,5.65
2023-06-09T07:41:34.203Z,5.22
2023-06-09T07:44:21.390Z,4.72
2023-06-09T07:47:08.476Z,4.72
2023-06-09T07:49:55.935Z,5.35
2023-06-09T07:52:43.671Z,4.90
2023-06-09T07:55:30.487Z,4.82
2023-06-09T07:58:16.938Z,4.45
2023-06-09T08:01:03.760Z,4.65
2023-06-09T08:03:50.430Z,4.47
2023-06-09T08:06:37.207Z,4.63
2023-06-09T08:09:25.905Z,4.85
2023-06-09T08:12:14.128Z,4.72
2023-06-09T08:15:00.791Z,4.35
2023-06-09T08:17:47.441Z,5.03
2023-06-09T08:20:34.128Z,4.53
2023-06-09T08:23:21.779Z,5.03
2023-06-09T08:26:09.656Z,4.68
2023-06-09T08:28:56.833Z,4.63
2023-06-09T08:31:43.634Z,5.10
2023-06-09T08:34:30.180Z,5.13
2023-06-09T08:37:17.152Z,4.82
2023-06-09T08:40:09.246Z,4.88
2023-06-09T08:43:01.657Z,5.13
2023-06-09T08:45:51.300Z,5.00
2023-06-09T08:48:51.249Z,5.22
2023-06-09T08:51:39.374Z,5.43
2023-06-09T08:54:27.026Z,5.03
2023-06-09T08:57:13.594Z,4.75
2023-06-09T09:00:01.453Z,5.03
2023-06-09T09:02:48.510Z,5.25
2023-06-09T09:05:35.402Z,4.68
2023-06-09T09:08:22.438Z,4.93
2023-06-09T09:11:08.986Z,4.80
2023-06-09T09:13:55.423Z,5.50
2023-06-09T09:16:43.495Z,4.80
2023-06-09T09:19:31.946Z,4.93
2023-06-09T09:22:18.528Z,5.00
2023-06-09T09:25:09.514Z,4.75
2023-06-09T09:28:07.399Z,4.40
2023-06-09T09:30:56.009Z,4.85
2023-06-09T09:33:49.447Z,4.63
2023-06-09T09:36:42.821Z,4.20
2023-06-09T09:39:29.527Z,4.72
2023-06-09T09:42:16.656Z,4.60
2023-06-09T09:45:06.295Z,4.50
2023-06-09T09:47:53.024Z,4.38
2023-06-09T09:50:42.860Z,4.40
2023-06-09T09:53:29.660Z,4.47
2023-06-09T09:56:20.663Z,4.20
2023-06-09T09:59:07.701Z,4.22
2023-06-09T10:01:57.169Z,4.43
2023-06-09T10:04:44.091Z,4.43
2023-06-09T10:07:32.939Z,4.43
2023-06-09T10:10:20.921Z,4.30
2023-06-09T10:13:07.984Z,4.70
2023-06-09T10:15:55.738Z,4.00
2023-06-09T10:18:43.625Z,4.47
2023-06-09T10:21:30.282Z,4.43
2023-06-09T10:24:20.232Z,4.95
2023-06-09T10:27:08.573Z,4.55
2023-06-09T10:29:55.029Z,4.40
2023-06-09T10:32:49.239Z,4.68
2023-06-09T10:35:39.794Z,4.63
2023-06-09T10:38:31.066Z,4.05
2023-06-09T10:41:24.157Z,3.92
2023-06-09T10:44:31.991Z,4.18
2023-06-09T10:47:44.685Z,4.10
2023-06-09T10:50:32.360Z,4.40
2023-06-09T10:53:20.553Z,4.10
2023-06-09T10:56:36.849Z,4.25
2023-06-09T10:59:59.293Z,3.55
2023-06-09T11:02:51.408Z,4.00
2023-06-09T11:05:44.416Z,4.00
2023-06-09T11:09:10.542Z,3.47
2023-06-09T11:11:58.444Z,4.00
2023-06-09T11:14:57.136Z,3.80
2023-06-09T11:17:45.763Z,4.13
2023-06-09T11:20:34.966Z,4.00
2023-06-09T11:23:22.469Z,3.80
2023-06-09T11:26:23.639Z,3.58
2023-06-09T11:29:22.595Z,3.70
2023-06-09T11:32:09.591Z,3.65
2023-06-09T11:34:57.514Z,3.97
2023-06-09T11:37:44.195Z,3.85
2023-06-09T11:40:32.068Z,4.05
2023-06-09T11:43:20.544Z,3.90
2023-06-09T11:46:08.758Z,3.97
2023-06-09T11:49:00.971Z,4.18
2023-06-09T11:52:07.573Z,3.65
2023-06-09T11:54:54.322Z,3.95
2023-06-09T11:57:41.524Z,4.25
2023-06-09T12:00:31.083Z,4.00
2023-06-09T12:03:21.681Z,3.92
2023-06-09T12:06:09.209Z,3.83
2023-06-09T12:09:19.026Z,3.80
2023-06-09T12:12:07.573Z,4.50
2023-06-09T12:14:54.047Z,4.18
2023-06-09T12:17:41.643Z,4.00
2023-06-09T12:20:31.777Z,4.10
2023-06-09T12:23:19.809Z,3.95
2023-06-09T12:26:09.360Z,4.18
2023-06-09T12:28:56.392Z,4.15
2023-06-09T12:31:47.109Z,4.43
2023-06-09T12:34:33.872Z,4.53
2023-06-09T12:37:21.825Z,4.63
2023-06-09T12:40:12.779Z,3.97
2023-06-09T12:42:59.490Z,4.65
2023-06-09T12:45:47.707Z,4.38
2023-06-09T12:48:34.673Z,4.25
2023-06-09T12:51:21.371Z,4.68
2023-06-09T12:54:12.015Z,4.65
2023-06-09T12:56:59.125Z,4.45
2023-06-09T12:59:45.898Z,4.03
2023-06-09T13:02:34.449Z,4.72
2023-06-09T13:05:22.642Z,4.35
2023-06-09T13:08:09.255Z,4.75
2023-06-09T13:10:57.306Z,4.65
2023-06-09T13:13:44.459Z,4.22
2023-06-09T13:16:32.500Z,4.65
2023-06-09T13:19:19.362Z,4.45
2023-06-09T13:22:06.715Z,4.63
2023-06-09T13:24:53.183Z,4.55
2023-06-09T13:27:41.953Z,4.55
2023-06-09T13:30:29.397Z,4.75
2023-06-09T13:33:17.943Z,4.60
2023-06-09T13:36:05.621Z,4.45
2023-06-09T13:38:52.366Z,5.15
2023-06-09T13:41:39.101Z,5.00
2023-06-09T13:44:27.193Z,4.70
2023-06-09T13:47:13.708Z,4.10
2023-06-09T13:50:00.442Z,4.63
2023-06-09T13:52:47.477Z,4.75
2023-06-09T13:55:33.965Z,4.95
2023-06-09T13:58:20.581Z,4.95
2023-06-09T14:01:09.006Z,5.00
2023-06-09T14:03:56.105Z,4.55
2023-06-09T14:06:42.746Z,4.57
2023-06-09T14:09:29.971Z,4.65
2023-06-09T14:12:16.729Z,4.80
2023-06-09T14:15:03.711Z,4.47
2023-06-09T14:17:51.763Z,4.70
2023-06-09T14:20:38.904Z,4.70
2023-06-09T14:23:25.309Z,5.28
2023-06-09T14:26:13.928Z,4.68
2023-06-09T14:29:00.864Z,6.20
2023-06-09T14:31:47.487Z,14.00
2023-06-09T14:34:35.698Z,7.28
2023-06-09T14:37:22.067Z,5.45
2023-06-09T14:40:10.386Z,5.10
2023-06-09T14:42:57.657Z,5.35
2023-06-09T14:45:44.330Z,4.95
2023-06-09T14:48:30.862Z,4.97
2023-06-09T14:51:18.809Z,5.20
2023-06-09T14:54:07.354Z,5.43
2023-06-09T14:56:55.799Z,4.57
2023-06-09T14:59:42.618Z,4.97
2023-06-09T15:02:29.394Z,5.28
2023-06-09T15:05:19.800Z,4.90
2023-06-09T15:08:09.042Z,4.55
2023-06-09T15:10:55.564Z,4.78
2023-06-09T15:13:42.261Z,4.72
2023-06-09T15:16:29.331Z,4.78
2023-06-09T15:19:16.240Z,5.45
2023-06-09T15:22:15.426Z,5.22
2023-06-09T15:25:07.673Z,4.88
2023-06-09T15:27:57.778Z,5.00
2023-06-09T15:30:46.245Z,4.85
2023-06-09T15:33:33.384Z,5.30
2023-06-09T15:36:20.018Z,4.70
2023-06-09T15:39:06.776Z,4.70
2023-06-09T15:41:54.669Z,4.63
2023-06-09T15:44:41.564Z,4.82
2023-06-09T15:47:30.065Z,5.10
2023-06-09T15:50:16.737Z,4.95
2023-06-09T15:53:03.442Z,5.20
2023-06-09T15:55:51.434Z,4.93
2023-06-09T15:58:39.868Z,4.47
2023-06-09T16:01:26.680Z,5.60
2023-06-09T16:04:13.739Z,5.20
2023-06-09T16:07:01.758Z,5.07
2023-06-09T16:09:48.558Z,4.78
2023-06-09T16:12:35.164Z,5.25
2023-06-09T16:15:23.372Z,5.25
2023-06-09T16:18:12.909Z,5.65
2023-06-09T16:20:59.704Z,5.45
2023-06-09T16:23:46.300Z,5.32
2023-06-09T16:26:32.900Z,5.38
2023-06-09T16:29:21.137Z,5.03
2023-06-09T16:32:09.524Z,5.13
2023-06-09T16:34:56.066Z,5.05
2023-06-09T16:37:43.023Z,6.20
2023-06-09T16:40:29.643Z,5.75
2023-06-09T16:43:16.214Z,5.60
2023-06-09T16:46:02.920Z,5.50
2023-06-09T16:48:51.161Z,5.75
2023-06-09T16:51:37.632Z,5.63
2023-06-09T16:54:24.404Z,5.25
2023-06-09T16:57:10.991Z,5.82
2023-06-09T16:59:57.357Z,6.22
2023-06-09T17:02:44.261Z,6.10
2023-06-09T17:05:32.494Z,5.50
2023-06-09T17:08:18.878Z,5.97
2023-06-09T17:11:05.469Z,6.38
2023-06-09T17:13:52.333Z,6.63
2023-06-09T17:16:40.591Z,6.13
2023-06-09T17:19:27.264Z,6.20
2023-06-09T17:22:15.357Z,6.50
2023-06-09T17:25:02.178Z,5.80
2023-06-09T17:27:48.885Z,5.72
2023-06-09T17:30:35.781Z,5.82
2023-06-09T17:33:22.637Z,5.70
2023-06-09T17:36:09.489Z,6.07
2023-06-09T17:38:57.571Z,6.13
2023-06-09T17:41:45.212Z,5.60
2023-06-09T17:44:32.080Z,5.30
2023-06-09T17:47:19.057Z,5.80
2023-06-09T17:50:07.223Z,6.05
2023-06-09T17:52:54.048Z,5.43
2023-06-09T17:55:42.011Z,6.22
2023-06-09T17:58:28.661Z,6.25
2023-06-09T18:01:15.581Z,6.38
2023-06-09T18:04:02.503Z,6.15
2023-06-09T18:06:49.584Z,6.30
2023-06-09T18:09:36.445Z,6.75
2023-06-09T18:12:24.376Z,6.55
2023-06-09T18:15:12.422Z,6.13
2023-06-09T18:17:58.809Z,6.80
2023-06-09T18:20:45.197Z,6.40
2023-06-09T18:23:31.879Z,6.63
2023-06-09T18:26:19.160Z,6.63
2023-06-09T18:29:07.381Z,5.65
2023-06-09T18:31:56.750Z,6.15
2023-06-09T18:34:43.434Z,6.18
2023-06-09T18:37:30.175Z,5.85
2023-06-09T18:40:17.076Z,6.35
2023-06-09T18:43:03.472Z,6.22
2023-06-09T18:45:51.218Z,5.50
2023-06-09T18:48:44.143Z,6.68
2023-06-09T18:51:39.123Z,6.53
2023-06-09T18:54:25.911Z,6.40
2023-06-09T18:57:12.988Z,7.03
2023-06-09T19:00:02.015Z,6.28
2023-06-09T19:02:50.089Z,6.25
2023-06-09T19:05:36.983Z,6.53
2023-06-09T19:08:23.690Z,6.68
2023-06-09T19:11:10.239Z,6.57
2023-06-09T19:13:57.011Z,6.50
2023-06-09T19:16:43.679Z,6.38
2023-06-09T19:19:31.794Z,6.53
2023-06-09T19:22:21.284Z,6.45
2023-06-09T19:25:10.801Z,6.07
2023-06-09T19:27:57.917Z,6.10
2023-06-09T19:30:44.883Z,6.47
2023-06-09T19:33:31.498Z,6.80
2023-06-09T19:36:19.878Z,6.45
2023-06-09T19:39:08.401Z,6.65
2023-06-09T19:41:55.018Z,6.72
2023-06-09T19:44:41.845Z,7.03
2023-06-09T19:47:28.143Z,6.22
2023-06-09T19:50:14.969Z,7.00
2023-06-09T19:53:03.050Z,6.78
2023-06-09T19:55:49.439Z,6.60
2023-06-09T19:58:36.344Z,6.55
2023-06-09T20:01:22.919Z,6.93
2023-06-09T20:04:09.952Z,6.38
2023-06-09T20:06:56.729Z,7.15
2023-06-09T20:09:44.831Z,6.57
2023-06-09T20:12:31.274Z,7.35
2023-06-09T20:15:18.275Z,7.32
2023-06-09T20:18:05.202Z,7.05
2023-06-09T20:20:52.464Z,7.40
2023-06-09T20:23:42.327Z,7.70
2023-06-09T20:26:30.022Z,7.50
2023-06-09T20:29:16.838Z,6.80
2023-06-09T20:32:03.259Z,7.63
2023-06-09T20:34:50.140Z,7.53
2023-06-09T20:37:36.559Z,8.00
2023-06-09T20:40:23.460Z,8.20
2023-06-09T20:43:13.493Z,8.38
2023-06-09T20:46:01.639Z,8.40
2023-06-09T20:48:48.893Z,8.38
2023-06-09T20:51:37.914Z,8.30
2023-06-09T20:54:24.936Z,8.57
2023-06-09T20:57:11.526Z,7.70
2023-06-09T20:59:59.858Z,8.25
2023-06-09T21:02:48.246Z,8.25
2023-06-09T21:05:34.898Z,8.57
2023-06-09T21:08:21.914Z,8.55
2023-06-09T21:11:08.467Z,7.78
2023-06-09T21:13:55.433Z,8.35
2023-06-09T21:16:44.812Z,8.68
2023-06-09T21:19:31.695Z,7.97
2023-06-09T21:22:18.499Z,8.70
2023-06-09T21:25:05.333Z,8.23
2023-06-09T21:27:51.840Z,8.77
2023-06-09T21:30:38.582Z,8.00
2023-06-09T21:33:26.509Z,8.80
2023-06-09T21:36:13.409Z,7.78
2023-06-09T21:39:00.252Z,8.45
2023-06-09T21:41:46.781Z,8.00
2023-06-09T21:44:33.498Z,8.73
2023-06-09T21:47:20.140Z,8.88
2023-06-09T21:50:09.249Z,8.77
2023-06-09T21:52:55.931Z,8.55
2023-06-09T21:55:43.180Z,9.05
2023-06-09T21:58:30.718Z,8.18
2023-06-09T22:01:19.386Z,8.38
2023-06-09T22:04:06.393Z,7.85
2023-06-09T22:06:54.816Z,8.13
2023-06-09T22:09:41.380Z,8.40
2023-06-09T22:12:39.475Z,8.45
2023-06-09T22:15:27.178Z,8.43
2023-06-09T22:18:18.125Z,8.48
2023-06-09T22:21:05.221Z,8.25
2023-06-09T22:23:53.400Z,8.23
2023-06-09T22:26:58.459Z,8.32
2023-06-09T22:29:47.060Z,8.18
2023-06-09T22:32:33.426Z,7.68
2023-06-09T22:35:21.388Z,8.45
2023-06-09T22:38:08.163Z,8.35
2023-06-09T22:40:56.041Z,8.27
2023-06-09T22:43:43.012Z,7.45
2023-06-09T22:46:29.683Z,7.72
2023-06-09T22:49:18.428Z,7.85
2023-06-09T22:52:05.879Z,8.20
2023-06-09T22:54:52.640Z,7.30
2023-06-09T22:57:42.138Z,7.68
2023-06-09T23:00:29.135Z,7.57
2023-06-09T23:03:15.703Z,7.75
2023-06-09T23:06:04.143Z,7.90
2023-06-09T23:08:51.440Z,7.60
2023-06-09T23:11:38.831Z,7.88
2023-06-09T23:14:27.038Z,7.95
2023-06-09T23:17:13.458Z,7.65
2023-06-09T23:20:01.175Z,7.38
2023-06-09T23:22:47.521Z,7.57
2023-06-09T23:25:34.417Z,8.07
2023-06-09T23:28:21.146Z,8.15
2023-06-09T23:31:10.789Z,6.80
2023-06-09T23:33:57.090Z,7.28
2023-06-09T23:36:44.362Z,7.60
2023-06-09T23:39:31.336Z,7.72
2023-06-09T23:42:17.893Z,7.75
2023-06-09T23:45:04.550Z,7.55
2023-06-09T23:47:52.482Z,7.13
2023-06-09T23:50:38.990Z,7.35
2023-06-09T23:53:26.326Z,7.40
2023-06-09T23:56:12.808Z,7.68
2023-06-09T23:58:59.378Z,6.70
